ENHV

Valan Airport

Honningsvåg, Norway
METAR ENHV 231620Z 24010KT 9999 -SHRA FEW017 BKN022 04/02 Q0988
Observed Flight Rules
Oct-23 @ 16:20 UTC (29 minutes ago) Marginal Visual Flight Rules
Wind Visibility Clouds Conditions
240° at 10 knots 10,000+ meters
  • Few at 1,700' AGL
  • Broken at 2,200' AGL
  • Light Rain
Temperatures Readings
Current 4°C / 39°F
Dewpoint 2°C / 36°F
Humidity 87%
Altimeter 29.17" Hg
Pressure 988 hPa
Elevation 14
METAR ENHV 231620Z 24010KT 9999 -SHRA FEW017 BKN022 04/02 Q0988
Observed Flight Rules
Oct-23 @ 16:20 UTC
(29 minutes ago)
MVFR
Wind Visibility
240° at 10 knots 10,000+ meters
Clouds
  • Few at 1,700' AGL
  • Broken at 2,200' AGL
Conditions
  • Light Rain
Temperature Dewpoint
4°C / 39°F 2°C / 36°F
Humidity Altimeter Pressure
87% 29.17" Hg 988 hPa